ADDS METAR Data INFO
IDs: Format: Raw Decoded Include TAF

Data at: 1950 UTC 14 Aug 2018

KMHS 141856Z AUTO 00000KT 10SM CLR 29/M02 A3001 RMK AO2 SLP146 T02941017
KMHS 141756Z AUTO 00000KT 8SM CLR 28/02 A3001 RMK AO2 SLP146 T02830017 10283 20089 58004
KMHS 141708Z AUTO 00000KT 3SM HZ CLR 25/06 A3002 RMK AO2 T02500061
KMHS 141656Z AUTO 00000KT 2 1/2SM HZ CLR 24/06 A3002 RMK AO2 SLP151 T02390061
KMHS 141626Z AUTO 00000KT 2 1/2SM HZ CLR 21/06 A3002 RMK AO2 T02110061
KMHS 141556Z AUTO 00000KT 3SM HZ SCT043 18/11 A3003 RMK AO2 SLP159 T01780106
KMHS 141503Z AUTO 00000KT 3SM HZ OVC048 13/07 A3003 RMK AO2 T01280067
KMHS 141456Z AUTO 00000KT 2 1/2SM HZ OVC048 12/07 A3003 RMK AO2 SLP160 T01170067 53002
KMHS 141356Z AUTO 00000KT 3SM HZ OVC050 09/04 A3002 RMK AO2 SLP159 T00890039
KMHS 141256Z AUTO 00000KT 6SM HZ FEW065 09/03 A3002 RMK AO2 SLP157 T00890033
KMHS 141156Z AUTO 00000KT 7SM OVC055 10/03 A3002 RMK AO2 SLP153 T01000028 10156 20100 $
KMHS 141056Z AUTO 00000KT 6SM HZ OVC050 11/02 A3002 RMK AO2 SLP152 T01110022 $
KMHS 140956Z AUTO 00000KT 5SM HZ OVC050 11/02 A3003 RMK AO2 SLP154 T01110022
KMHS 140856Z AUTO 06003KT 5SM HZ OVC050 11/M01 A3003 RMK AO2 SLP154 T01111006 50002
KMHS 140756Z AUTO 00000KT 6SM HZ OVC060 13/M01 A3004 RMK AO2 SLP155 T01281006 403220089
KMHS 140656Z AUTO 05003KT 4SM HZ OVC060 14/M01 A3003 RMK AO2 SLP154 T01391011
KMHS 140556Z AUTO 06003KT 4SM HZ OVC065 15/03 A3003 RMK AO2 SLP152 T01500028 10294 20150 51010
KMHS 140456Z AUTO 00000KT 5SM HZ OVC060 17/06 A3002 RMK AO2 SLP151 T01720056
KMHS 140356Z AUTO 00000KT 6SM HZ OVC055 19/05 A3000 RMK AO2 SLP149 T01940050
KMHS 140256Z AUTO 09003KT 6SM HZ OVC055 24/02 A2999 RMK AO2 SLP146 T02440022 53001
KMHS 140156Z AUTO 00000KT 4SM HZ OVC049 27/03 A2999 RMK AO2 SLP145 T02670033
KMHS 140056Z AUTO 00000KT 3SM HZ BKN038 OVC049 28/03 A2999 RMK AO2 SLP145 T02780033
KMHS 140020Z AUTO 00000KT 3SM HZ BKN034 OVC044 29/02 A2999 RMK AO2 T02890017
KMHS 132356Z AUTO 00000KT 2 1/2SM HZ BKN032 OVC044 29/01 A2999 RMK AO2 SLP143 T02940011 10322 20278 56012
KMHS 132348Z AUTO 00000KT 2 1/2SM HZ BKN032 OVC039 29/M01 A2999 RMK AO2 T02941006
KMHS 132338Z AUTO 00000KT 3SM HZ BKN032 OVC041 29/M01 A2999 RMK AO2 T02941006
KMHS 132256Z AUTO VRB03KT 2SM HZ BKN029 OVC038 31/00 A3000 RMK AO2 SLP145 T03110000
KMHS 132236Z AUTO 00000KT 2 1/2SM HZ OVC031 32/M01 A3001 RMK AO2 T03171006
KMHS 132156Z AUTO VRB03KT 4SM HZ CLR 32/M01 A3001 RMK AO2 SLP149 T03171011
KMHS 132056Z AUTO 00000KT 9SM CLR 32/01 A3003 RMK AO2 SLP151 T03170006 58011
KMHS 131956Z AUTO 9SM CLR 31/03 A3004 RMK AO2 SLP158 T03060028
KMHS 131856Z AUTO 00000KT 9SM CLR 29/02 A3006 RMK AO2 SLP161 T02940017
KMHS 131756Z AUTO 00000KT 7SM CLR 28/04 A3006 RMK AO2 SLP166 T02780044 10278 20089 55001
KMHS 131656Z AUTO 00000KT 4SM HZ CLR 24/08 A3006 RMK AO2 SLP165 T02390078
KMHS 131556Z AUTO 00000KT 4SM HZ CLR 19/11 A3006 RMK AO2 SLP170 T01940106
KMHS 131456Z AUTO 00000KT 4SM HZ CLR 13/07 A3007 RMK AO2 SLP174 T01330072 50001
KMHS 131356Z AUTO 00000KT 6SM HZ FEW065 09/04 A3007 RMK AO2 SLP176 T00940039
KMHS 131256Z AUTO 00000KT 7SM OVC065 10/03 A3007 RMK AO2 SLP171 T01000033
KMHS 131156Z AUTO 00000KT 7SM CLR 11/03 A3006 RMK AO2 SLP169 T01060033 10150 20094 55002
KMHS 131056Z AUTO 00000KT 5SM HZ CLR 10/04 A3006 RMK AO2 SLP166 T01000044
KMHS 130956Z AUTO 00000KT 5SM HZ CLR 11/04 A3006 RMK AO2 SLP164 T01060044
KMHS 130856Z AUTO 00000KT 5SM HZ CLR 13/04 A3007 RMK AO2 SLP165 T01280039 51004
KMHS 130756Z AUTO 00000KT 5SM HZ BKN050 13/04 A3007 RMK AO2 SLP167 T01280044 403220106